This is the latest recevied weather packets stored in our database for station/object CE3PA-5. If no packets are shown the sender has not sent any weather packets the latest 10 day(s).
| Time | Temp. | Humidity | Pressure | Rain* | Wind** | Luminosity | Snow |
|---|---|---|---|---|---|---|---|
| 1777278342 | 2.78° C | 17% | 756.2 hPa | - | - | - | - |
| 1777277440 | 2.78° C | 17% | 756.2 hPa | - | - | - | - |
| 1777276540 | 2.22° C | 17% | 756.4 hPa | - | - | - | - |
| 1777275642 | 2.78° C | 17% | 756.5 hPa | - | - | - | - |
| 1777274740 | 2.78° C | 17% | 756.5 hPa | - | - | - | - |
| 1777273840 | 2.78° C | 17% | 756.6 hPa | - | - | - | - |
| 1777272940 | 2.78° C | 18% | 756.7 hPa | - | - | - | - |
| 1777272042 | 2.78° C | 18% | 756.8 hPa | - | - | - | - |
| 1777271139 | 3.33° C | 18% | 756.9 hPa | - | - | - | - |
| 1777270242 | 3.33° C | 18% | 756.8 hPa | - | - | - | - |
| 1777269333 | 3.33° C | 18% | 756.8 hPa | - | - | - | - |
| 1777267536 | 3.89° C | 18% | 756.7 hPa | - | - | - | - |
| 1777266636 | 3.89° C | 18% | 756.8 hPa | - | - | - | - |
| 1777265736 | 3.89° C | 18% | 756.7 hPa | - | - | - | - |
| 1777264836 | 4.44° C | 18% | 756.8 hPa | - | - | - | - |
| 1777263936 | 4.44° C | 18% | 756.9 hPa | - | - | - | - |
| 1777262135 | 3.89° C | 18% | 757.1 hPa | - | - | - | - |
| 1777260335 | 3.33° C | 19% | 757.4 hPa | - | - | - | - |
| 1777259435 | 3.89° C | 19% | 757.3 hPa | - | - | - | - |
| 1777258535 | 3.33° C | 19% | 757.4 hPa | - | - | - | - |
| 1777257635 | 3.89° C | 19% | 757.3 hPa | - | - | - | - |
| 1777256734 | 4.44° C | 19% | 757.3 hPa | - | - | - | - |
| 1777253134 | 6.11° C | 20% | 757.2 hPa | - | - | - | - |
| 1777252234 | 6.11° C | 20% | 757.2 hPa | - | - | - | - |
| 1777251333 | 6.11° C | 20% | 757.2 hPa | - | - | - | - |
* Rain since midnight (hover to see other rain measurements)
** Current wind speed in m/s (hover to see current wind gust speed)